Terminal Aerodrome Forecast
Issued by NWS

Home | Current Version | Previous Version | Text Only | Print | Product List | Glossary On
Versions: 1 2 3 4 5 6 7 8 9 10 11 12 13 14 15 16 17 18 19 20 21 22 23 24 25 26 27 28 29 30 31 32 33 34 35 36
000
FTUS41 KCTP 210910 AAB
TAFBFD
TAF AMD
KBFD 210910Z 2109/2206 VRB03KT 1/2SM FG BKN002
     FM211200 30003KT 2SM BR BKN008
     FM211300 30007KT P6SM SCT050=

USA.gov is the U.S. government's official web portal to all federal, state and local government web resources and services.